In Rescue
 
Open Full Screen Window  High Contrast Mode
January 17, 2021 12:02 PM CST
Weather Information
Wind Direction
  ---
Wind Speed
  00 kt (0 mph)
Wind Gust
  00 kt (0 mph)
Altimeter
29.80 in
Visibility
10 SM
Temperature
-07° C
19° F
Dewpoint
-08° C
18° F
Humidity
93%
1hr Rain Fall
00.00 in.
24hr Rain Fall
00.00 in.
Sky Condition
Overcast @ 400 ft
LIFR

METAR KROS 171802Z AUTO 00000KT 10SM OVC004 M07/M08 A2980 RMK AO2 T10711080

FAA Disclaimer: The data displayed is for advisory purposes only and is not to be used for flight planning or operations.